sensor_id;sensor_type;location;lat;lon;timestamp;temperature;humidity
20883;DHT22;10601;51.830;7.294;2022-07-09T00:01:44;16.40;99.90
20883;DHT22;10601;51.830;7.294;2022-07-09T00:04:11;16.30;99.90
20883;DHT22;10601;51.830;7.294;2022-07-09T00:06:37;16.30;99.90
20883;DHT22;10601;51.830;7.294;2022-07-09T00:09:03;16.20;99.90
20883;DHT22;10601;51.830;7.294;2022-07-09T00:11:29;16.20;99.90
20883;DHT22;10601;51.830;7.294;2022-07-09T00:13:55;16.20;99.90
20883;DHT22;10601;51.830;7.294;2022-07-09T00:16:21;16.10;99.90
20883;DHT22;10601;51.830;7.294;2022-07-09T00:18:47;16.20;99.90
20883;DHT22;10601;51.830;7.294;2022-07-09T00:21:13;16.20;99.90
20883;DHT22;10601;51.830;7.294;2022-07-09T00:23:39;16.10;99.90
20883;DHT22;10601;51.830;7.294;2022-07-09T00:26:06;16.10;99.90
20883;DHT22;10601;51.830;7.294;2022-07-09T00:28:32;16.00;99.90
20883;DHT22;10601;51.830;7.294;2022-07-09T00:30:58;16.10;99.90
20883;DHT22;10601;51.830;7.294;2022-07-09T00:33:24;16.00;99.90
20883;DHT22;10601;51.830;7.294;2022-07-09T00:35:50;16.00;99.90
20883;DHT22;10601;51.830;7.294;2022-07-09T00:38:16;15.90;99.90
20883;DHT22;10601;51.830;7.294;2022-07-09T00:40:42;15.90;99.90
20883;DHT22;10601;51.830;7.294;2022-07-09T00:43:16;15.90;99.90
20883;DHT22;10601;51.830;7.294;2022-07-09T00:45:42;15.90;99.90
20883;DHT22;10601;51.830;7.294;2022-07-09T00:48:08;15.90;99.90
20883;DHT22;10601;51.830;7.294;2022-07-09T00:50:34;15.80;99.90
20883;DHT22;10601;51.830;7.294;2022-07-09T00:53:00;15.80;99.90
20883;DHT22;10601;51.830;7.294;2022-07-09T00:55:27;15.80;99.90
20883;DHT22;10601;51.830;7.294;2022-07-09T00:57:53;15.80;99.90
20883;DHT22;10601;51.830;7.294;2022-07-09T01:00:19;15.70;99.90
20883;DHT22;10601;51.830;7.294;2022-07-09T01:02:46;15.70;99.90
20883;DHT22;10601;51.830;7.294;2022-07-09T01:05:13;15.70;99.90
20883;DHT22;10601;51.830;7.294;2022-07-09T01:07:39;15.70;99.90
20883;DHT22;10601;51.830;7.294;2022-07-09T01:10:05;15.60;99.90
20883;DHT22;10601;51.830;7.294;2022-07-09T01:12:32;15.60;99.90
20883;DHT22;10601;51.830;7.294;2022-07-09T01:14:58;15.60;99.90
20883;DHT22;10601;51.830;7.294;2022-07-09T01:17:24;15.60;99.90
20883;DHT22;10601;51.830;7.294;2022-07-09T01:19:50;15.50;99.90
20883;DHT22;10601;51.830;7.294;2022-07-09T01:22:17;15.50;99.90
20883;DHT22;10601;51.830;7.294;2022-07-09T01:24:43;15.60;99.90
20883;DHT22;10601;51.830;7.294;2022-07-09T01:27:09;15.60;99.90
20883;DHT22;10601;51.830;7.294;2022-07-09T01:29:35;15.60;99.90
20883;DHT22;10601;51.830;7.294;2022-07-09T01:32:01;15.60;99.90
20883;DHT22;10601;51.830;7.294;2022-07-09T01:34:27;15.60;99.90
20883;DHT22;10601;51.830;7.294;2022-07-09T01:36:53;15.60;99.90
20883;DHT22;10601;51.830;7.294;2022-07-09T01:39:19;15.60;99.90
20883;DHT22;10601;51.830;7.294;2022-07-09T01:41:45;15.60;99.90
20883;DHT22;10601;51.830;7.294;2022-07-09T01:44:11;15.60;99.90
20883;DHT22;10601;51.830;7.294;2022-07-09T01:46:37;15.60;99.90
20883;DHT22;10601;51.830;7.294;2022-07-09T01:49:04;15.70;99.90
20883;DHT22;10601;51.830;7.294;2022-07-09T01:51:33;15.70;99.90
20883;DHT22;10601;51.830;7.294;2022-07-09T01:54:00;15.80;99.90
20883;DHT22;10601;51.830;7.294;2022-07-09T01:56:26;15.90;99.90
20883;DHT22;10601;51.830;7.294;2022-07-09T01:58:52;16.00;99.90
20883;DHT22;10601;51.830;7.294;2022-07-09T02:01:18;16.00;99.90
20883;DHT22;10601;51.830;7.294;2022-07-09T02:03:44;16.10;99.90
20883;DHT22;10601;51.830;7.294;2022-07-09T02:06:10;16.00;99.90
20883;DHT22;10601;51.830;7.294;2022-07-09T02:08:36;16.00;99.90
20883;DHT22;10601;51.830;7.294;2022-07-09T02:11:05;16.00;99.90
20883;DHT22;10601;51.830;7.294;2022-07-09T02:13:31;15.90;99.90
20883;DHT22;10601;51.830;7.294;2022-07-09T02:15:58;15.90;99.90
20883;DHT22;10601;51.830;7.294;2022-07-09T02:18:26;15.80;99.90
20883;DHT22;10601;51.830;7.294;2022-07-09T02:20:52;15.90;99.90
20883;DHT22;10601;51.830;7.294;2022-07-09T02:23:18;15.90;99.90
20883;DHT22;10601;51.830;7.294;2022-07-09T02:25:44;16.00;99.90
20883;DHT22;10601;51.830;7.294;2022-07-09T02:28:10;16.10;99.90
20883;DHT22;10601;51.830;7.294;2022-07-09T02:30:36;16.10;99.90
20883;DHT22;10601;51.830;7.294;2022-07-09T02:33:03;16.10;99.90
20883;DHT22;10601;51.830;7.294;2022-07-09T02:35:29;16.20;99.90
20883;DHT22;10601;51.830;7.294;2022-07-09T02:37:55;16.20;99.90
20883;DHT22;10601;51.830;7.294;2022-07-09T02:40:22;16.30;99.90
20883;DHT22;10601;51.830;7.294;2022-07-09T02:42:48;16.30;99.90
20883;DHT22;10601;51.830;7.294;2022-07-09T02:45:14;16.40;99.90
20883;DHT22;10601;51.830;7.294;2022-07-09T02:47:40;16.40;99.90
20883;DHT22;10601;51.830;7.294;2022-07-09T02:50:06;16.50;99.90
20883;DHT22;10601;51.830;7.294;2022-07-09T02:52:33;16.50;99.90
20883;DHT22;10601;51.830;7.294;2022-07-09T02:54:59;16.50;99.90
20883;DHT22;10601;51.830;7.294;2022-07-09T02:57:25;16.50;99.90
20883;DHT22;10601;51.830;7.294;2022-07-09T02:59:51;16.60;99.90
20883;DHT22;10601;51.830;7.294;2022-07-09T03:02:17;16.60;99.90
20883;DHT22;10601;51.830;7.294;2022-07-09T03:04:43;16.70;99.90
20883;DHT22;10601;51.830;7.294;2022-07-09T03:07:09;16.70;99.90
20883;DHT22;10601;51.830;7.294;2022-07-09T03:09:35;16.70;99.90
20883;DHT22;10601;51.830;7.294;2022-07-09T03:12:01;16.70;99.90
20883;DHT22;10601;51.830;7.294;2022-07-09T03:14:27;16.70;99.90
20883;DHT22;10601;51.830;7.294;2022-07-09T03:16:53;16.70;99.90
20883;DHT22;10601;51.830;7.294;2022-07-09T03:19:19;16.60;99.90
20883;DHT22;10601;51.830;7.294;2022-07-09T03:21:46;16.60;99.90
20883;DHT22;10601;51.830;7.294;2022-07-09T03:24:12;16.60;99.90
20883;DHT22;10601;51.830;7.294;2022-07-09T03:26:38;16.50;99.90
20883;DHT22;10601;51.830;7.294;2022-07-09T03:29:04;16.50;99.90
20883;DHT22;10601;51.830;7.294;2022-07-09T03:31:30;16.50;99.90
20883;DHT22;10601;51.830;7.294;2022-07-09T03:33:56;16.40;99.90
20883;DHT22;10601;51.830;7.294;2022-07-09T03:36:23;16.40;99.90
20883;DHT22;10601;51.830;7.294;2022-07-09T03:38:49;16.40;99.90
20883;DHT22;10601;51.830;7.294;2022-07-09T03:41:15;16.40;99.90
20883;DHT22;10601;51.830;7.294;2022-07-09T03:43:41;16.40;99.90
20883;DHT22;10601;51.830;7.294;2022-07-09T03:46:07;16.40;99.90
20883;DHT22;10601;51.830;7.294;2022-07-09T03:48:34;16.40;99.90
20883;DHT22;10601;51.830;7.294;2022-07-09T03:51:00;16.50;99.90
20883;DHT22;10601;51.830;7.294;2022-07-09T03:53:26;16.50;99.90
20883;DHT22;10601;51.830;7.294;2022-07-09T03:55:52;16.50;99.90
20883;DHT22;10601;51.830;7.294;2022-07-09T03:58:18;16.50;99.90
20883;DHT22;10601;51.830;7.294;2022-07-09T04:00:44;16.60;99.90
20883;DHT22;10601;51.830;7.294;2022-07-09T04:03:10;16.60;99.90
20883;DHT22;10601;51.830;7.294;2022-07-09T04:05:37;16.70;99.90
20883;DHT22;10601;51.830;7.294;2022-07-09T04:08:03;16.70;99.90
20883;DHT22;10601;51.830;7.294;2022-07-09T04:10:29;16.70;99.90
20883;DHT22;10601;51.830;7.294;2022-07-09T04:12:55;16.70;99.90
20883;DHT22;10601;51.830;7.294;2022-07-09T04:15:22;16.80;99.90
20883;DHT22;10601;51.830;7.294;2022-07-09T04:17:48;16.80;99.90
20883;DHT22;10601;51.830;7.294;2022-07-09T04:20:14;16.80;99.90
20883;DHT22;10601;51.830;7.294;2022-07-09T04:22:40;16.80;99.90
20883;DHT22;10601;51.830;7.294;2022-07-09T04:25:06;16.80;99.90
20883;DHT22;10601;51.830;7.294;2022-07-09T04:27:32;16.80;99.90
20883;DHT22;10601;51.830;7.294;2022-07-09T04:30:01;16.90;99.90
20883;DHT22;10601;51.830;7.294;2022-07-09T04:32:27;16.80;99.90
20883;DHT22;10601;51.830;7.294;2022-07-09T04:34:54;16.80;99.90
20883;DHT22;10601;51.830;7.294;2022-07-09T04:37:20;16.90;99.90
20883;DHT22;10601;51.830;7.294;2022-07-09T04:39:46;16.90;99.90
20883;DHT22;10601;51.830;7.294;2022-07-09T04:42:12;16.90;99.90
20883;DHT22;10601;51.830;7.294;2022-07-09T04:44:39;16.90;99.90
20883;DHT22;10601;51.830;7.294;2022-07-09T04:47:05;16.90;99.90
20883;DHT22;10601;51.830;7.294;2022-07-09T04:49:31;16.90;99.90
20883;DHT22;10601;51.830;7.294;2022-07-09T04:51:57;16.90;99.90
20883;DHT22;10601;51.830;7.294;2022-07-09T04:54:23;16.90;99.90
20883;DHT22;10601;51.830;7.294;2022-07-09T04:56:49;17.00;99.90
20883;DHT22;10601;51.830;7.294;2022-07-09T04:59:15;17.10;99.90
20883;DHT22;10601;51.830;7.294;2022-07-09T05:01:42;17.10;99.90
20883;DHT22;10601;51.830;7.294;2022-07-09T05:04:08;17.10;99.90
20883;DHT22;10601;51.830;7.294;2022-07-09T05:06:34;17.10;99.90
20883;DHT22;10601;51.830;7.294;2022-07-09T05:09:00;17.20;99.90
20883;DHT22;10601;51.830;7.294;2022-07-09T05:11:26;17.20;99.90
20883;DHT22;10601;51.830;7.294;2022-07-09T05:13:52;17.30;99.90
20883;DHT22;10601;51.830;7.294;2022-07-09T05:16:18;17.40;99.90
20883;DHT22;10601;51.830;7.294;2022-07-09T05:18:44;17.60;99.90
20883;DHT22;10601;51.830;7.294;2022-07-09T05:21:11;17.70;99.90
20883;DHT22;10601;51.830;7.294;2022-07-09T05:23:37;17.70;99.90
20883;DHT22;10601;51.830;7.294;2022-07-09T05:26:03;17.70;99.90
20883;DHT22;10601;51.830;7.294;2022-07-09T05:28:29;17.60;99.90
20883;DHT22;10601;51.830;7.294;2022-07-09T05:30:55;17.60;99.90
20883;DHT22;10601;51.830;7.294;2022-07-09T05:33:21;17.60;99.90
20883;DHT22;10601;51.830;7.294;2022-07-09T05:35:47;17.60;99.90
20883;DHT22;10601;51.830;7.294;2022-07-09T05:38:14;17.60;99.90
20883;DHT22;10601;51.830;7.294;2022-07-09T05:40:40;17.60;99.90
20883;DHT22;10601;51.830;7.294;2022-07-09T05:43:06;17.70;99.90
20883;DHT22;10601;51.830;7.294;2022-07-09T05:45:32;17.80;99.90
20883;DHT22;10601;51.830;7.294;2022-07-09T05:47:58;17.90;99.90
20883;DHT22;10601;51.830;7.294;2022-07-09T05:50:24;18.00;99.90
20883;DHT22;10601;51.830;7.294;2022-07-09T05:52:50;18.00;99.90
20883;DHT22;10601;51.830;7.294;2022-07-09T05:55:16;18.10;99.90
20883;DHT22;10601;51.830;7.294;2022-07-09T05:57:42;18.20;99.90
20883;DHT22;10601;51.830;7.294;2022-07-09T06:00:09;18.20;99.90
20883;DHT22;10601;51.830;7.294;2022-07-09T06:02:35;18.20;99.90
20883;DHT22;10601;51.830;7.294;2022-07-09T06:05:01;18.20;99.90
20883;DHT22;10601;51.830;7.294;2022-07-09T06:07:27;18.20;99.90
20883;DHT22;10601;51.830;7.294;2022-07-09T06:09:53;18.30;99.90
20883;DHT22;10601;51.830;7.294;2022-07-09T06:12:19;18.50;99.90
20883;DHT22;10601;51.830;7.294;2022-07-09T06:14:45;18.50;99.90
20883;DHT22;10601;51.830;7.294;2022-07-09T06:17:11;18.80;99.90
20883;DHT22;10601;51.830;7.294;2022-07-09T06:19:38;19.20;99.90
20883;DHT22;10601;51.830;7.294;2022-07-09T06:22:04;19.60;99.90
20883;DHT22;10601;51.830;7.294;2022-07-09T06:24:30;20.20;99.90
20883;DHT22;10601;51.830;7.294;2022-07-09T06:26:57;20.80;88.20
20883;DHT22;10601;51.830;7.294;2022-07-09T06:29:23;21.00;26.10
20883;DHT22;10601;51.830;7.294;2022-07-09T06:31:49;21.20;19.40
20883;DHT22;10601;51.830;7.294;2022-07-09T06:34:15;21.60;1.00
20883;DHT22;10601;51.830;7.294;2022-07-09T06:36:41;21.70;1.00
20883;DHT22;10601;51.830;7.294;2022-07-09T06:39:10;21.70;1.00
20883;DHT22;10601;51.830;7.294;2022-07-09T06:42:04;21.70;1.00
20883;DHT22;10601;51.830;7.294;2022-07-09T06:44:30;21.70;1.00
20883;DHT22;10601;51.830;7.294;2022-07-09T06:46:56;21.80;1.00
20883;DHT22;10601;51.830;7.294;2022-07-09T06:49:22;21.90;1.00
20883;DHT22;10601;51.830;7.294;2022-07-09T06:51:48;21.80;1.00
20883;DHT22;10601;51.830;7.294;2022-07-09T06:54:14;21.60;1.00
20883;DHT22;10601;51.830;7.294;2022-07-09T06:56:40;21.50;1.00
20883;DHT22;10601;51.830;7.294;2022-07-09T06:59:06;22.00;1.00
20883;DHT22;10601;51.830;7.294;2022-07-09T07:01:32;22.40;1.00
20883;DHT22;10601;51.830;7.294;2022-07-09T07:03:58;22.80;1.00
20883;DHT22;10601;51.830;7.294;2022-07-09T07:06:25;23.20;1.00
20883;DHT22;10601;51.830;7.294;2022-07-09T07:08:51;23.20;1.00
20883;DHT22;10601;51.830;7.294;2022-07-09T07:11:17;23.40;1.00
20883;DHT22;10601;51.830;7.294;2022-07-09T07:13:43;24.20;1.00
20883;DHT22;10601;51.830;7.294;2022-07-09T07:16:09;25.20;1.00
20883;DHT22;10601;51.830;7.294;2022-07-09T07:18:35;26.50;1.00
20883;DHT22;10601;51.830;7.294;2022-07-09T07:21:01;26.80;1.00
20883;DHT22;10601;51.830;7.294;2022-07-09T07:23:27;26.60;1.00
20883;DHT22;10601;51.830;7.294;2022-07-09T07:25:53;25.90;1.00
20883;DHT22;10601;51.830;7.294;2022-07-09T07:28:19;25.20;1.00
20883;DHT22;10601;51.830;7.294;2022-07-09T07:30:45;24.80;1.00
20883;DHT22;10601;51.830;7.294;2022-07-09T07:33:11;25.20;1.00
20883;DHT22;10601;51.830;7.294;2022-07-09T07:35:37;25.10;1.00
20883;DHT22;10601;51.830;7.294;2022-07-09T07:38:03;24.20;1.00
20883;DHT22;10601;51.830;7.294;2022-07-09T07:40:29;24.00;1.00
20883;DHT22;10601;51.830;7.294;2022-07-09T07:42:56;24.20;1.00
20883;DHT22;10601;51.830;7.294;2022-07-09T07:45:22;25.30;1.00
20883;DHT22;10601;51.830;7.294;2022-07-09T07:47:48;26.40;1.00
20883;DHT22;10601;51.830;7.294;2022-07-09T07:50:14;26.90;1.00
20883;DHT22;10601;51.830;7.294;2022-07-09T07:52:40;27.90;1.00
20883;DHT22;10601;51.830;7.294;2022-07-09T07:55:06;29.00;1.00
20883;DHT22;10601;51.830;7.294;2022-07-09T07:57:33;30.20;1.00
20883;DHT22;10601;51.830;7.294;2022-07-09T07:59:59;30.80;1.00
20883;DHT22;10601;51.830;7.294;2022-07-09T08:02:25;31.20;1.00
20883;DHT22;10601;51.830;7.294;2022-07-09T08:04:51;30.70;1.00
20883;DHT22;10601;51.830;7.294;2022-07-09T08:07:17;30.00;1.00
20883;DHT22;10601;51.830;7.294;2022-07-09T08:09:43;29.30;1.00
20883;DHT22;10601;51.830;7.294;2022-07-09T08:12:09;29.50;1.00
20883;DHT22;10601;51.830;7.294;2022-07-09T08:14:35;30.30;1.00
20883;DHT22;10601;51.830;7.294;2022-07-09T08:17:01;30.80;1.00
20883;DHT22;10601;51.830;7.294;2022-07-09T08:19:27;30.30;1.00
20883;DHT22;10601;51.830;7.294;2022-07-09T08:21:53;29.40;1.00
20883;DHT22;10601;51.830;7.294;2022-07-09T08:24:19;28.50;1.00
20883;DHT22;10601;51.830;7.294;2022-07-09T08:26:45;28.50;1.00
20883;DHT22;10601;51.830;7.294;2022-07-09T08:29:11;28.40;1.00
20883;DHT22;10601;51.830;7.294;2022-07-09T08:31:38;28.20;1.00
20883;DHT22;10601;51.830;7.294;2022-07-09T08:34:04;28.30;1.00
20883;DHT22;10601;51.830;7.294;2022-07-09T08:36:30;28.80;1.00
20883;DHT22;10601;51.830;7.294;2022-07-09T08:38:56;28.70;1.00
20883;DHT22;10601;51.830;7.294;2022-07-09T08:41:23;28.90;1.00
20883;DHT22;10601;51.830;7.294;2022-07-09T08:43:50;29.20;1.00
20883;DHT22;10601;51.830;7.294;2022-07-09T08:46:17;29.70;1.00
20883;DHT22;10601;51.830;7.294;2022-07-09T08:48:44;30.30;1.00
20883;DHT22;10601;51.830;7.294;2022-07-09T08:51:11;30.60;1.00
20883;DHT22;10601;51.830;7.294;2022-07-09T08:53:42;29.90;1.00
20883;DHT22;10601;51.830;7.294;2022-07-09T08:56:09;29.30;1.00
20883;DHT22;10601;51.830;7.294;2022-07-09T08:58:35;29.30;1.00
20883;DHT22;10601;51.830;7.294;2022-07-09T09:01:02;29.90;1.00
20883;DHT22;10601;51.830;7.294;2022-07-09T09:03:30;30.50;1.00
20883;DHT22;10601;51.830;7.294;2022-07-09T09:06:05;31.00;1.00
20883;DHT22;10601;51.830;7.294;2022-07-09T09:08:35;30.80;1.00
20883;DHT22;10601;51.830;7.294;2022-07-09T09:11:06;30.00;1.00
20883;DHT22;10601;51.830;7.294;2022-07-09T09:13:46;29.10;1.00
20883;DHT22;10601;51.830;7.294;2022-07-09T09:16:13;28.30;1.00
20883;DHT22;10601;51.830;7.294;2022-07-09T09:18:40;27.70;99.90
20883;DHT22;10601;51.830;7.294;2022-07-09T09:21:08;27.60;99.90
20883;DHT22;10601;51.830;7.294;2022-07-09T09:23:45;27.60;99.90
20883;DHT22;10601;51.830;7.294;2022-07-09T09:29:04;26.60;99.90
20883;DHT22;10601;51.830;7.294;2022-07-09T09:31:31;26.10;1.00
20883;DHT22;10601;51.830;7.294;2022-07-09T09:34:18;26.10;1.00
20883;DHT22;10601;51.830;7.294;2022-07-09T09:36:45;25.80;99.90
20883;DHT22;10601;51.830;7.294;2022-07-09T09:39:18;25.50;99.90
20883;DHT22;10601;51.830;7.294;2022-07-09T09:41:47;25.20;1.00
20883;DHT22;10601;51.830;7.294;2022-07-09T09:44:19;25.30;1.00
20883;DHT22;10601;51.830;7.294;2022-07-09T09:46:46;25.30;1.00
20883;DHT22;10601;51.830;7.294;2022-07-09T09:49:13;25.50;1.00
20883;DHT22;10601;51.830;7.294;2022-07-09T09:54:32;25.20;1.00
20883;DHT22;10601;51.830;7.294;2022-07-09T09:56:59;25.30;1.00
20883;DHT22;10601;51.830;7.294;2022-07-09T09:59:26;25.30;1.00
20883;DHT22;10601;51.830;7.294;2022-07-09T10:01:52;25.20;1.00
20883;DHT22;10601;51.830;7.294;2022-07-09T10:04:18;25.10;1.00
20883;DHT22;10601;51.830;7.294;2022-07-09T10:06:45;25.30;1.00
20883;DHT22;10601;51.830;7.294;2022-07-09T10:09:12;25.20;1.00
20883;DHT22;10601;51.830;7.294;2022-07-09T10:14:05;25.00;1.00
20883;DHT22;10601;51.830;7.294;2022-07-09T10:16:36;25.00;99.90
20883;DHT22;10601;51.830;7.294;2022-07-09T10:19:03;25.00;99.90
20883;DHT22;10601;51.830;7.294;2022-07-09T10:21:34;25.00;99.90
20883;DHT22;10601;51.830;7.294;2022-07-09T10:24:02;25.20;99.90
20883;DHT22;10601;51.830;7.294;2022-07-09T10:26:45;25.50;99.90
20883;DHT22;10601;51.830;7.294;2022-07-09T10:29:24;25.60;99.90
20883;DHT22;10601;51.830;7.294;2022-07-09T10:31:54;25.50;1.00
20883;DHT22;10601;51.830;7.294;2022-07-09T10:37:00;25.80;1.00
20883;DHT22;10601;51.830;7.294;2022-07-09T10:39:27;25.60;1.00
20883;DHT22;10601;51.830;7.294;2022-07-09T10:42:19;25.50;1.00
20883;DHT22;10601;51.830;7.294;2022-07-09T10:44:46;25.70;1.00
20883;DHT22;10601;51.830;7.294;2022-07-09T10:47:16;25.90;1.00
20883;DHT22;10601;51.830;7.294;2022-07-09T10:49:42;26.40;99.90
20883;DHT22;10601;51.830;7.294;2022-07-09T10:52:09;26.80;99.90
20883;DHT22;10601;51.830;7.294;2022-07-09T10:54:46;27.20;1.00
20883;DHT22;10601;51.830;7.294;2022-07-09T10:57:13;27.60;1.00
20883;DHT22;10601;51.830;7.294;2022-07-09T10:59:45;28.00;1.00
20883;DHT22;10601;51.830;7.294;2022-07-09T11:02:21;28.20;1.00
20883;DHT22;10601;51.830;7.294;2022-07-09T11:04:49;28.70;1.00
20883;DHT22;10601;51.830;7.294;2022-07-09T11:07:23;28.70;1.00
20883;DHT22;10601;51.830;7.294;2022-07-09T11:09:52;28.70;1.00
20883;DHT22;10601;51.830;7.294;2022-07-09T11:12:19;28.40;99.90
20883;DHT22;10601;51.830;7.294;2022-07-09T11:14:48;28.80;99.90
20883;DHT22;10601;51.830;7.294;2022-07-09T11:17:19;29.20;1.00
20883;DHT22;10601;51.830;7.294;2022-07-09T11:19:48;29.70;1.00
20883;DHT22;10601;51.830;7.294;2022-07-09T11:22:15;30.00;1.00
20883;DHT22;10601;51.830;7.294;2022-07-09T11:24:41;29.50;1.00
20883;DHT22;10601;51.830;7.294;2022-07-09T11:27:08;29.00;1.00
20883;DHT22;10601;51.830;7.294;2022-07-09T11:29:37;27.80;1.00
20883;DHT22;10601;51.830;7.294;2022-07-09T11:32:04;26.80;1.00
20883;DHT22;10601;51.830;7.294;2022-07-09T11:34:30;26.00;99.90
20883;DHT22;10601;51.830;7.294;2022-07-09T11:36:58;25.50;39.10
20883;DHT22;10601;51.830;7.294;2022-07-09T11:39:25;24.90;43.40
20883;DHT22;10601;51.830;7.294;2022-07-09T11:41:52;24.60;99.90
20883;DHT22;10601;51.830;7.294;2022-07-09T11:44:26;24.20;99.90
20883;DHT22;10601;51.830;7.294;2022-07-09T11:47:19;24.00;99.90
20883;DHT22;10601;51.830;7.294;2022-07-09T11:49:49;23.90;99.90
20883;DHT22;10601;51.830;7.294;2022-07-09T11:52:24;23.90;99.90
20883;DHT22;10601;51.830;7.294;2022-07-09T11:55:02;25.10;1.00
20883;DHT22;10601;51.830;7.294;2022-07-09T11:57:30;26.60;1.00
20883;DHT22;10601;51.830;7.294;2022-07-09T11:59:57;27.60;99.90
20883;DHT22;10601;51.830;7.294;2022-07-09T12:02:32;27.70;99.90
20883;DHT22;10601;51.830;7.294;2022-07-09T12:05:00;27.10;99.90
20883;DHT22;10601;51.830;7.294;2022-07-09T12:07:26;26.50;99.90
20883;DHT22;10601;51.830;7.294;2022-07-09T12:10:00;25.90;99.90
20883;DHT22;10601;51.830;7.294;2022-07-09T12:12:27;25.50;99.90
20883;DHT22;10601;51.830;7.294;2022-07-09T12:14:53;25.20;99.90
20883;DHT22;10601;51.830;7.294;2022-07-09T12:17:25;25.10;99.90
20883;DHT22;10601;51.830;7.294;2022-07-09T12:19:52;25.20;99.90
20883;DHT22;10601;51.830;7.294;2022-07-09T12:22:18;25.00;99.90
20883;DHT22;10601;51.830;7.294;2022-07-09T12:24:45;24.90;99.90
20883;DHT22;10601;51.830;7.294;2022-07-09T12:27:11;24.70;99.90
20883;DHT22;10601;51.830;7.294;2022-07-09T12:29:37;24.60;99.90
20883;DHT22;10601;51.830;7.294;2022-07-09T12:32:03;24.80;99.90
20883;DHT22;10601;51.830;7.294;2022-07-09T12:34:30;25.40;99.90
20883;DHT22;10601;51.830;7.294;2022-07-09T12:36:57;26.50;99.90
20883;DHT22;10601;51.830;7.294;2022-07-09T12:39:23;27.50;1.00
20883;DHT22;10601;51.830;7.294;2022-07-09T12:41:49;28.00;1.00
20883;DHT22;10601;51.830;7.294;2022-07-09T12:44:15;27.90;1.00
20883;DHT22;10601;51.830;7.294;2022-07-09T12:46:41;27.80;1.00
20883;DHT22;10601;51.830;7.294;2022-07-09T12:49:07;28.50;1.00
20883;DHT22;10601;51.830;7.294;2022-07-09T12:51:34;28.80;1.00
20883;DHT22;10601;51.830;7.294;2022-07-09T12:54:00;28.80;1.00
20883;DHT22;10601;51.830;7.294;2022-07-09T12:56:26;28.60;1.00
20883;DHT22;10601;51.830;7.294;2022-07-09T12:58:52;28.30;1.00
20883;DHT22;10601;51.830;7.294;2022-07-09T13:01:19;28.80;1.00
20883;DHT22;10601;51.830;7.294;2022-07-09T13:03:45;29.70;1.00
20883;DHT22;10601;51.830;7.294;2022-07-09T13:06:12;30.20;1.00
20883;DHT22;10601;51.830;7.294;2022-07-09T13:08:57;29.90;1.00
20883;DHT22;10601;51.830;7.294;2022-07-09T13:11:24;29.10;1.00
20883;DHT22;10601;51.830;7.294;2022-07-09T13:13:50;28.20;1.00
20883;DHT22;10601;51.830;7.294;2022-07-09T13:16:16;27.90;1.00
20883;DHT22;10601;51.830;7.294;2022-07-09T13:18:42;28.10;1.00
20883;DHT22;10601;51.830;7.294;2022-07-09T13:21:09;27.90;1.00
20883;DHT22;10601;51.830;7.294;2022-07-09T13:23:35;27.60;1.00
20883;DHT22;10601;51.830;7.294;2022-07-09T13:26:02;27.30;1.00
20883;DHT22;10601;51.830;7.294;2022-07-09T13:28:28;27.10;1.00
20883;DHT22;10601;51.830;7.294;2022-07-09T13:30:54;26.90;1.00
20883;DHT22;10601;51.830;7.294;2022-07-09T13:33:20;26.80;1.00
20883;DHT22;10601;51.830;7.294;2022-07-09T13:35:47;26.60;1.00
20883;DHT22;10601;51.830;7.294;2022-07-09T13:38:13;26.50;1.00
20883;DHT22;10601;51.830;7.294;2022-07-09T13:40:39;26.50;1.00
20883;DHT22;10601;51.830;7.294;2022-07-09T13:43:05;26.60;1.00
20883;DHT22;10601;51.830;7.294;2022-07-09T13:45:31;26.50;1.00
20883;DHT22;10601;51.830;7.294;2022-07-09T13:47:58;26.50;1.00
20883;DHT22;10601;51.830;7.294;2022-07-09T13:50:24;26.70;1.00
20883;DHT22;10601;51.830;7.294;2022-07-09T13:52:50;26.70;1.00
20883;DHT22;10601;51.830;7.294;2022-07-09T13:55:16;26.90;1.00
20883;DHT22;10601;51.830;7.294;2022-07-09T13:57:42;27.10;1.00
20883;DHT22;10601;51.830;7.294;2022-07-09T14:00:09;27.10;1.00
20883;DHT22;10601;51.830;7.294;2022-07-09T14:02:36;27.10;1.00
20883;DHT22;10601;51.830;7.294;2022-07-09T14:05:03;27.20;99.90
20883;DHT22;10601;51.830;7.294;2022-07-09T14:07:30;27.40;99.90
20883;DHT22;10601;51.830;7.294;2022-07-09T14:09:57;27.50;99.90
20883;DHT22;10601;51.830;7.294;2022-07-09T14:12:23;27.20;99.90
20883;DHT22;10601;51.830;7.294;2022-07-09T14:14:50;27.00;99.90
20883;DHT22;10601;51.830;7.294;2022-07-09T14:17:17;26.90;99.90
20883;DHT22;10601;51.830;7.294;2022-07-09T14:19:43;26.60;99.90
20883;DHT22;10601;51.830;7.294;2022-07-09T14:22:09;26.20;99.90
20883;DHT22;10601;51.830;7.294;2022-07-09T14:24:35;26.10;99.90
20883;DHT22;10601;51.830;7.294;2022-07-09T14:27:02;26.00;99.90
20883;DHT22;10601;51.830;7.294;2022-07-09T14:29:29;26.30;99.90
20883;DHT22;10601;51.830;7.294;2022-07-09T14:31:55;26.40;99.90
20883;DHT22;10601;51.830;7.294;2022-07-09T14:34:21;26.50;99.90
20883;DHT22;10601;51.830;7.294;2022-07-09T14:36:51;26.60;99.90
20883;DHT22;10601;51.830;7.294;2022-07-09T14:39:18;26.80;99.90
20883;DHT22;10601;51.830;7.294;2022-07-09T14:41:45;27.10;99.90
20883;DHT22;10601;51.830;7.294;2022-07-09T14:44:11;27.20;99.90
20883;DHT22;10601;51.830;7.294;2022-07-09T14:46:38;27.30;99.90
20883;DHT22;10601;51.830;7.294;2022-07-09T14:49:05;27.30;99.90
20883;DHT22;10601;51.830;7.294;2022-07-09T14:51:31;27.20;99.90
20883;DHT22;10601;51.830;7.294;2022-07-09T14:53:58;27.10;99.90
20883;DHT22;10601;51.830;7.294;2022-07-09T14:56:25;27.10;99.90
20883;DHT22;10601;51.830;7.294;2022-07-09T14:58:51;27.10;99.90
20883;DHT22;10601;51.830;7.294;2022-07-09T15:01:17;26.90;99.90
20883;DHT22;10601;51.830;7.294;2022-07-09T15:03:43;26.80;99.90
20883;DHT22;10601;51.830;7.294;2022-07-09T15:06:09;26.60;99.90
20883;DHT22;10601;51.830;7.294;2022-07-09T15:08:35;26.50;99.90
20883;DHT22;10601;51.830;7.294;2022-07-09T15:11:01;26.70;99.90
20883;DHT22;10601;51.830;7.294;2022-07-09T15:13:28;26.80;99.90
20883;DHT22;10601;51.830;7.294;2022-07-09T15:15:55;26.90;99.90
20883;DHT22;10601;51.830;7.294;2022-07-09T15:18:22;26.80;99.90
20883;DHT22;10601;51.830;7.294;2022-07-09T15:20:48;26.70;99.90
20883;DHT22;10601;51.830;7.294;2022-07-09T15:23:14;26.60;99.90
20883;DHT22;10601;51.830;7.294;2022-07-09T15:25:40;26.50;99.90
20883;DHT22;10601;51.830;7.294;2022-07-09T15:28:06;26.70;99.90
20883;DHT22;10601;51.830;7.294;2022-07-09T15:30:33;26.70;99.90
20883;DHT22;10601;51.830;7.294;2022-07-09T15:32:59;26.60;99.90
20883;DHT22;10601;51.830;7.294;2022-07-09T15:35:25;26.30;99.90
20883;DHT22;10601;51.830;7.294;2022-07-09T15:37:51;26.30;99.90
20883;DHT22;10601;51.830;7.294;2022-07-09T15:40:17;26.10;99.90
20883;DHT22;10601;51.830;7.294;2022-07-09T15:42:45;25.90;99.90
20883;DHT22;10601;51.830;7.294;2022-07-09T15:45:13;25.90;99.90
20883;DHT22;10601;51.830;7.294;2022-07-09T15:47:40;26.00;99.90